WAT251 KMIA-KCLT
Flight info
| Callsign | WAT251 |
|---|---|
| Flight time | 1h 23m |
| Altitude | 35000 |
| Route | ALTNN2 DUCEN Q87 VIYAP DCT CHECR STOCR4 |
| Aircraft | B738/M-SDGILRWY/SB1 |
Departure
| Time | 2026-05-05 00:41 |
|---|---|
| Airport | Miami International Airport (KMIA) |
Arrival
| Time | 2026-05-05 02:04 |
|---|---|
| Airport | Charlotte Douglas International Airport (KCLT) |
| Time | Latitude | Longitude | Altitude | Speed | Heading |
|---|---|---|---|---|---|
| 2026-05-05 00:08 | 25.79737 | -80.28303 | 12 ft | 0 kts | 359° |
| 2026-05-05 00:30 | 25.79735 | -80.28303 | 11 ft | 2 kts | 359° |
| 2026-05-05 00:30 | 25.79717 | -80.28303 | 11 ft | 2 kts | 359° |
| 2026-05-05 00:31 | 25.79699 | -80.28303 | 11 ft | 2 kts | 359° |
| 2026-05-05 00:31 | 25.79683 | -80.28303 | 11 ft | 1 kts | 359° |
| 2026-05-05 00:31 | 25.79676 | -80.28302 | 11 ft | 1 kts | 311° |
| 2026-05-05 00:31 | 25.79674 | -80.28294 | 11 ft | 1 kts | 258° |
| 2026-05-05 00:32 | 25.79674 | -80.28289 | 11 ft | 0 kts | 267° |
| 2026-05-05 00:34 | 25.79672 | -80.28335 | 11 ft | 9 kts | 266° |
| 2026-05-05 00:34 | 25.79667 | -80.28423 | 11 ft | 12 kts | 268° |
| 2026-05-05 00:34 | 25.79660 | -80.28529 | 11 ft | 11 kts | 261° |
| 2026-05-05 00:34 | 25.79647 | -80.28628 | 11 ft | 10 kts | 265° |
| 2026-05-05 00:35 | 25.79642 | -80.28716 | 11 ft | 10 kts | 267° |
| 2026-05-05 00:35 | 25.79671 | -80.28807 | 11 ft | 11 kts | 344° |
| 2026-05-05 00:35 | 25.79768 | -80.28814 | 11 ft | 14 kts | 359° |
| 2026-05-05 00:35 | 25.79893 | -80.28818 | 11 ft | 15 kts | 358° |
| 2026-05-05 00:36 | 25.79999 | -80.28841 | 11 ft | 13 kts | 311° |
| 2026-05-05 00:36 | 25.80010 | -80.28977 | 11 ft | 17 kts | 267° |
| 2026-05-05 00:36 | 25.80003 | -80.29122 | 11 ft | 16 kts | 268° |
| 2026-05-05 00:36 | 25.79997 | -80.29275 | 11 ft | 20 kts | 268° |
| 2026-05-05 00:37 | 25.79990 | -80.29458 | 11 ft | 20 kts | 268° |
| 2026-05-05 00:37 | 25.79981 | -80.29637 | 11 ft | 19 kts | 267° |
| 2026-05-05 00:37 | 25.79976 | -80.29777 | 11 ft | 15 kts | 268° |
| 2026-05-05 00:37 | 25.79971 | -80.29905 | 11 ft | 11 kts | 268° |
| 2026-05-05 00:38 | 25.79971 | -80.29936 | 11 ft | 2 kts | 279° |
| 2026-05-05 00:38 | 25.79973 | -80.29945 | 11 ft | 0 kts | 283° |
| 2026-05-05 00:38 | 25.79977 | -80.29960 | 11 ft | 7 kts | 283° |
| 2026-05-05 00:38 | 25.79998 | -80.30046 | 11 ft | 11 kts | 288° |
| 2026-05-05 00:39 | 25.80063 | -80.30094 | 11 ft | 10 kts | 49° |
| 2026-05-05 00:39 | 25.80073 | -80.30051 | 11 ft | 0 kts | 85° |
| 2026-05-05 00:40 | 25.80077 | -80.29986 | 11 ft | 32 kts | 86° |
| 2026-05-05 00:40 | 25.80100 | -80.29410 | 11 ft | 103 kts | 88° |
| 2026-05-05 00:41 | 25.80147 | -80.28270 | 13 ft | 161 kts | 88° |
| 2026-05-05 00:41 | 25.80189 | -80.26795 | 599 ft | 168 kts | 84° |
| 2026-05-05 00:41 | 25.80343 | -80.25250 | 1257 ft | 179 kts | 82° |
| 2026-05-05 00:41 | 25.80468 | -80.23605 | 1889 ft | 190 kts | 86° |
| 2026-05-05 00:42 | 25.80478 | -80.21823 | 2347 ft | 209 kts | 89° |
| 2026-05-05 00:42 | 25.80507 | -80.19850 | 2915 ft | 225 kts | 83° |
| 2026-05-05 00:42 | 25.81160 | -80.17889 | 3489 ft | 240 kts | 53° |
| 2026-05-05 00:42 | 25.82742 | -80.16432 | 4108 ft | 256 kts | 27° |
| 2026-05-05 00:43 | 25.84792 | -80.15784 | 4789 ft | 267 kts | 4° |
| 2026-05-05 00:43 | 25.86997 | -80.15732 | 5570 ft | 273 kts | 358° |
| 2026-05-05 00:43 | 25.89237 | -80.15743 | 6339 ft | 278 kts | 355° |
| 2026-05-05 00:43 | 25.91456 | -80.16283 | 7144 ft | 279 kts | 339° |
| 2026-05-05 00:44 | 25.93623 | -80.17142 | 7955 ft | 283 kts | 337° |
| 2026-05-05 00:44 | 25.95850 | -80.18002 | 8732 ft | 289 kts | 338° |
| 2026-05-05 00:44 | 25.98133 | -80.18797 | 9540 ft | 293 kts | 341° |
| 2026-05-05 00:44 | 26.00501 | -80.19329 | 10338 ft | 299 kts | 348° |
| 2026-05-05 00:45 | 26.03003 | -80.19593 | 10866 ft | 314 kts | 351° |
| 2026-05-05 00:45 | 26.05648 | -80.19802 | 11369 ft | 328 kts | 351° |
| 2026-05-05 00:45 | 26.08397 | -80.20042 | 11820 ft | 343 kts | 351° |
| 2026-05-05 00:45 | 26.11246 | -80.20317 | 12318 ft | 356 kts | 351° |
| 2026-05-05 00:46 | 26.15306 | -80.20733 | 12898 ft | 376 kts | 351° |
| 2026-05-05 00:46 | 26.17394 | -80.20950 | 13165 ft | 386 kts | 351° |
| 2026-05-05 00:46 | 26.20608 | -80.21281 | 13662 ft | 397 kts | 351° |
| 2026-05-05 00:46 | 26.23862 | -80.21590 | 14312 ft | 403 kts | 351° |
| 2026-05-05 00:47 | 26.27201 | -80.21883 | 15111 ft | 405 kts | 351° |
| 2026-05-05 00:47 | 26.30584 | -80.22173 | 15859 ft | 409 kts | 351° |
| 2026-05-05 00:47 | 26.33968 | -80.22464 | 16621 ft | 411 kts | 351° |
| 2026-05-05 00:47 | 26.37357 | -80.22760 | 17367 ft | 414 kts | 350° |
| 2026-05-05 00:48 | 26.40814 | -80.23081 | 18059 ft | 417 kts | 349° |
| 2026-05-05 00:48 | 26.44311 | -80.23436 | 18736 ft | 421 kts | 349° |
| 2026-05-05 00:48 | 26.47758 | -80.23797 | 19347 ft | 425 kts | 349° |
| 2026-05-05 00:48 | 26.51294 | -80.24167 | 20059 ft | 427 kts | 349° |
| 2026-05-05 00:49 | 26.54874 | -80.24540 | 20679 ft | 431 kts | 349° |
| 2026-05-05 00:49 | 26.58429 | -80.24943 | 21309 ft | 433 kts | 347° |
| 2026-05-05 00:49 | 26.62022 | -80.25481 | 21919 ft | 436 kts | 346° |
| 2026-05-05 00:49 | 26.65581 | -80.26090 | 22479 ft | 439 kts | 345° |
| 2026-05-05 00:50 | 26.69131 | -80.26812 | 23145 ft | 437 kts | 341° |
| 2026-05-05 00:50 | 26.72655 | -80.27892 | 23732 ft | 437 kts | 336° |
| 2026-05-05 00:50 | 26.76090 | -80.29200 | 24280 ft | 439 kts | 334° |
| 2026-05-05 00:50 | 26.79518 | -80.30624 | 24818 ft | 442 kts | 334° |
| 2026-05-05 00:51 | 26.82972 | -80.32100 | 25367 ft | 445 kts | 333° |
| 2026-05-05 00:51 | 26.86468 | -80.33599 | 25902 ft | 448 kts | 333° |
| 2026-05-05 00:51 | 26.89937 | -80.35081 | 26452 ft | 451 kts | 333° |
| 2026-05-05 00:51 | 26.93500 | -80.36597 | 26934 ft | 454 kts | 333° |
| 2026-05-05 00:52 | 26.97014 | -80.38066 | 27566 ft | 453 kts | 334° |
| 2026-05-05 00:52 | 27.00572 | -80.39512 | 28396 ft | 448 kts | 334° |
| 2026-05-05 00:52 | 27.04067 | -80.40913 | 29126 ft | 445 kts | 334° |
| 2026-05-05 00:52 | 27.07542 | -80.42301 | 29778 ft | 442 kts | 334° |
| 2026-05-05 00:53 | 27.10977 | -80.43694 | 30346 ft | 440 kts | 333° |
| 2026-05-05 00:53 | 27.14313 | -80.45120 | 30923 ft | 437 kts | 332° |
| 2026-05-05 00:53 | 27.17655 | -80.46597 | 31493 ft | 435 kts | 332° |
| 2026-05-05 00:53 | 27.21034 | -80.48109 | 31991 ft | 434 kts | 331° |
| 2026-05-05 00:54 | 27.24336 | -80.49590 | 32457 ft | 433 kts | 331° |
| 2026-05-05 00:54 | 27.27641 | -80.51066 | 32966 ft | 431 kts | 331° |
| 2026-05-05 00:54 | 27.30954 | -80.52543 | 33427 ft | 430 kts | 331° |
| 2026-05-05 00:54 | 27.34274 | -80.54021 | 33912 ft | 428 kts | 332° |
| 2026-05-05 00:55 | 27.37526 | -80.55456 | 34493 ft | 424 kts | 332° |
| 2026-05-05 00:55 | 27.40788 | -80.56816 | 35023 ft | 422 kts | 333° |
| 2026-05-05 00:55 | 27.44003 | -80.58097 | 35026 ft | 425 kts | 333° |
| 2026-05-05 00:56 | 27.50600 | -80.60671 | 35037 ft | 421 kts | 333° |
| 2026-05-05 00:56 | 27.57118 | -80.63237 | 35044 ft | 423 kts | 333° |
| 2026-05-05 00:57 | 27.63501 | -80.65768 | 35045 ft | 421 kts | 333° |
| 2026-05-05 00:57 | 27.70015 | -80.68365 | 35041 ft | 421 kts | 333° |
| 2026-05-05 00:58 | 27.75445 | -80.70535 | 35046 ft | 420 kts | 333° |
| 2026-05-05 00:58 | 27.81950 | -80.73138 | 35036 ft | 418 kts | 333° |
| 2026-05-05 00:59 | 27.88437 | -80.75738 | 35040 ft | 422 kts | 333° |
| 2026-05-05 00:59 | 27.95015 | -80.78375 | 35037 ft | 422 kts | 333° |
| 2026-05-05 01:00 | 28.01550 | -80.80994 | 35032 ft | 417 kts | 333° |
| 2026-05-05 01:00 | 28.08034 | -80.83606 | 35032 ft | 419 kts | 333° |
| 2026-05-05 01:01 | 28.14480 | -80.86198 | 35040 ft | 418 kts | 333° |
| 2026-05-05 01:01 | 28.20990 | -80.88827 | 35048 ft | 421 kts | 333° |
| 2026-05-05 01:02 | 28.27489 | -80.91449 | 35053 ft | 419 kts | 333° |
| 2026-05-05 01:02 | 28.34001 | -80.94078 | 35055 ft | 418 kts | 333° |
| 2026-05-05 01:03 | 28.40431 | -80.96680 | 35056 ft | 418 kts | 333° |
| 2026-05-05 01:03 | 28.46874 | -80.99294 | 35057 ft | 421 kts | 333° |
| 2026-05-05 01:04 | 28.53248 | -81.01876 | 35058 ft | 419 kts | 333° |
| 2026-05-05 01:04 | 28.62870 | -81.05788 | 35062 ft | 421 kts | 334° |
| 2026-05-05 01:05 | 28.69227 | -81.08374 | 35061 ft | 420 kts | 333° |
| 2026-05-05 01:05 | 28.75598 | -81.10972 | 35055 ft | 421 kts | 333° |
| 2026-05-05 01:06 | 28.81935 | -81.13556 | 35054 ft | 419 kts | 333° |
| 2026-05-05 01:06 | 28.88244 | -81.16134 | 35053 ft | 421 kts | 333° |
| 2026-05-05 01:07 | 28.94539 | -81.18705 | 35061 ft | 417 kts | 333° |
| 2026-05-05 01:07 | 29.00921 | -81.21326 | 35061 ft | 421 kts | 333° |
| 2026-05-05 01:08 | 29.07389 | -81.23977 | 35061 ft | 419 kts | 333° |
| 2026-05-05 01:08 | 29.13877 | -81.26643 | 35061 ft | 421 kts | 333° |
| 2026-05-05 01:09 | 29.20382 | -81.29318 | 35058 ft | 419 kts | 333° |
| 2026-05-05 01:09 | 29.26914 | -81.31750 | 35065 ft | 425 kts | 339° |
| 2026-05-05 01:10 | 29.33950 | -81.32855 | 35068 ft | 434 kts | 348° |
| 2026-05-05 01:10 | 29.41113 | -81.33255 | 35069 ft | 436 kts | 350° |
| 2026-05-05 01:11 | 29.48223 | -81.33589 | 35069 ft | 438 kts | 349° |
| 2026-05-05 01:11 | 29.55397 | -81.33968 | 35069 ft | 436 kts | 349° |
| 2026-05-05 01:12 | 29.62514 | -81.34369 | 35067 ft | 437 kts | 349° |
| 2026-05-05 01:12 | 29.69672 | -81.34792 | 35059 ft | 438 kts | 349° |
| 2026-05-05 01:13 | 29.76771 | -81.35209 | 35063 ft | 435 kts | 349° |
| 2026-05-05 01:13 | 29.83787 | -81.35626 | 35067 ft | 437 kts | 349° |
| 2026-05-05 01:14 | 29.90947 | -81.36053 | 35073 ft | 438 kts | 349° |
| 2026-05-05 01:14 | 29.98144 | -81.36480 | 35076 ft | 439 kts | 349° |
| 2026-05-05 01:15 | 30.05252 | -81.36900 | 35077 ft | 437 kts | 349° |
| 2026-05-05 01:15 | 30.12335 | -81.37323 | 35075 ft | 435 kts | 349° |
| 2026-05-05 01:16 | 30.19445 | -81.37749 | 35077 ft | 437 kts | 349° |
| 2026-05-05 01:16 | 30.26431 | -81.38167 | 35078 ft | 435 kts | 349° |
| 2026-05-05 01:17 | 30.33532 | -81.38592 | 35081 ft | 436 kts | 349° |
| 2026-05-05 01:17 | 30.40641 | -81.39019 | 35081 ft | 435 kts | 349° |
| 2026-05-05 01:18 | 30.47774 | -81.39445 | 35080 ft | 437 kts | 349° |
| 2026-05-05 01:18 | 30.54981 | -81.39835 | 35076 ft | 436 kts | 349° |
| 2026-05-05 01:19 | 30.61433 | -81.40168 | 35076 ft | 437 kts | 349° |
| 2026-05-05 01:19 | 30.68511 | -81.40534 | 35077 ft | 435 kts | 349° |
| 2026-05-05 01:20 | 30.75699 | -81.40915 | 35069 ft | 435 kts | 349° |
| 2026-05-05 01:20 | 30.82857 | -81.41293 | 35065 ft | 436 kts | 349° |
| 2026-05-05 01:21 | 30.90044 | -81.41679 | 35071 ft | 438 kts | 349° |
| 2026-05-05 01:21 | 30.97138 | -81.42052 | 35082 ft | 435 kts | 349° |
| 2026-05-05 01:22 | 31.04259 | -81.42432 | 35083 ft | 436 kts | 348° |
| 2026-05-05 01:22 | 31.11379 | -81.42813 | 35089 ft | 435 kts | 348° |
| 2026-05-05 01:23 | 31.18540 | -81.43198 | 35089 ft | 437 kts | 349° |
| 2026-05-05 01:23 | 31.25722 | -81.42963 | 35088 ft | 450 kts | 0° |
| 2026-05-05 01:24 | 31.32946 | -81.40720 | 35088 ft | 462 kts | 10° |
| 2026-05-05 01:24 | 31.40075 | -81.37761 | 35087 ft | 465 kts | 12° |
| 2026-05-05 01:25 | 31.47203 | -81.34734 | 35072 ft | 463 kts | 11° |
| 2026-05-05 01:25 | 31.54399 | -81.31728 | 35069 ft | 463 kts | 11° |
| 2026-05-05 01:26 | 31.61556 | -81.28785 | 35064 ft | 466 kts | 11° |
| 2026-05-05 01:26 | 31.68703 | -81.25850 | 35075 ft | 465 kts | 11° |
| 2026-05-05 01:27 | 31.75868 | -81.22910 | 34962 ft | 465 kts | 12° |
| 2026-05-05 01:27 | 31.79482 | -81.21426 | 35225 ft | 468 kts | 11° |
| 2026-05-05 01:27 | 31.83058 | -81.19959 | 35074 ft | 465 kts | 12° |
| 2026-05-05 01:28 | 31.90276 | -81.16988 | 35109 ft | 469 kts | 12° |
| 2026-05-05 01:28 | 31.97494 | -81.14008 | 35095 ft | 466 kts | 12° |
| 2026-05-05 01:29 | 32.04753 | -81.11007 | 35086 ft | 466 kts | 12° |
| 2026-05-05 01:29 | 32.11842 | -81.08071 | 35088 ft | 466 kts | 12° |
| 2026-05-05 01:30 | 32.19072 | -81.05077 | 35091 ft | 468 kts | 12° |
| 2026-05-05 01:30 | 32.25006 | -81.02617 | 35085 ft | 469 kts | 13° |
| 2026-05-05 01:31 | 32.32247 | -80.99609 | 35079 ft | 468 kts | 13° |
| 2026-05-05 01:31 | 32.39456 | -80.96606 | 35088 ft | 469 kts | 13° |
| 2026-05-05 01:32 | 32.46721 | -80.93574 | 35078 ft | 468 kts | 13° |
| 2026-05-05 01:32 | 32.54011 | -80.90529 | 35077 ft | 470 kts | 13° |
| 2026-05-05 01:33 | 32.61244 | -80.87503 | 35100 ft | 470 kts | 14° |
| 2026-05-05 01:33 | 32.68462 | -80.84475 | 35073 ft | 470 kts | 14° |
| 2026-05-05 01:34 | 32.75699 | -80.80789 | 35074 ft | 476 kts | 22° |
| 2026-05-05 01:34 | 32.82532 | -80.76392 | 35086 ft | 478 kts | 24° |
| 2026-05-05 01:35 | 32.89388 | -80.71805 | 35089 ft | 478 kts | 24° |
| 2026-05-05 01:35 | 32.96204 | -80.67284 | 35094 ft | 475 kts | 24° |
| 2026-05-05 01:36 | 33.03087 | -80.62765 | 35089 ft | 477 kts | 24° |
| 2026-05-05 01:36 | 33.09936 | -80.58286 | 35082 ft | 478 kts | 24° |
| 2026-05-05 01:37 | 33.16701 | -80.53857 | 35078 ft | 477 kts | 24° |
| 2026-05-05 01:37 | 33.23594 | -80.49335 | 35075 ft | 477 kts | 24° |
| 2026-05-05 01:38 | 33.30482 | -80.44811 | 35068 ft | 477 kts | 24° |
| 2026-05-05 01:38 | 33.37378 | -80.40277 | 35063 ft | 476 kts | 24° |
| 2026-05-05 01:39 | 33.44295 | -80.35718 | 35075 ft | 476 kts | 24° |
| 2026-05-05 01:39 | 33.51108 | -80.31220 | 35075 ft | 477 kts | 25° |
| 2026-05-05 01:40 | 33.57935 | -80.26704 | 35078 ft | 476 kts | 25° |
| 2026-05-05 01:40 | 33.64820 | -80.22138 | 35083 ft | 477 kts | 25° |
| 2026-05-05 01:41 | 33.71590 | -80.17634 | 34597 ft | 467 kts | 25° |
| 2026-05-05 01:41 | 33.78294 | -80.13165 | 34573 ft | 468 kts | 25° |
| 2026-05-05 01:42 | 33.81685 | -80.10912 | 34008 ft | 477 kts | 25° |
| 2026-05-05 01:42 | 33.85183 | -80.08585 | 32264 ft | 482 kts | 25° |
| 2026-05-05 01:42 | 33.88652 | -80.06271 | 30508 ft | 483 kts | 25° |
| 2026-05-05 01:42 | 33.92106 | -80.04012 | 28784 ft | 482 kts | 23° |
| 2026-05-05 01:43 | 33.95691 | -80.02135 | 27234 ft | 471 kts | 13° |
| 2026-05-05 01:43 | 33.99413 | -80.01311 | 25780 ft | 455 kts | 358° |
| 2026-05-05 01:43 | 34.03084 | -80.01557 | 24600 ft | 435 kts | 347° |
| 2026-05-05 01:43 | 34.06491 | -80.02415 | 24197 ft | 403 kts | 342° |
| 2026-05-05 01:44 | 34.09621 | -80.03566 | 23924 ft | 383 kts | 335° |
| 2026-05-05 01:44 | 34.12490 | -80.05098 | 23609 ft | 380 kts | 330° |
| 2026-05-05 01:44 | 34.15301 | -80.06820 | 23290 ft | 376 kts | 329° |
| 2026-05-05 01:44 | 34.18040 | -80.08543 | 22981 ft | 374 kts | 329° |
| 2026-05-05 01:45 | 34.20795 | -80.10259 | 22680 ft | 373 kts | 329° |
| 2026-05-05 01:45 | 34.23572 | -80.11954 | 22379 ft | 372 kts | 330° |
| 2026-05-05 01:45 | 34.26334 | -80.13613 | 22069 ft | 371 kts | 330° |
| 2026-05-05 01:45 | 34.29120 | -80.15273 | 21748 ft | 369 kts | 330° |
| 2026-05-05 01:46 | 34.31890 | -80.16918 | 21437 ft | 368 kts | 330° |
| 2026-05-05 01:46 | 34.34655 | -80.18559 | 21126 ft | 366 kts | 330° |
| 2026-05-05 01:46 | 34.37396 | -80.20184 | 20828 ft | 364 kts | 330° |
| 2026-05-05 01:46 | 34.40133 | -80.21809 | 20523 ft | 363 kts | 331° |
| 2026-05-05 01:47 | 34.42859 | -80.23428 | 20211 ft | 362 kts | 331° |
| 2026-05-05 01:47 | 34.45586 | -80.25049 | 19918 ft | 360 kts | 331° |
| 2026-05-05 01:47 | 34.48242 | -80.26629 | 19620 ft | 360 kts | 331° |
| 2026-05-05 01:47 | 34.50917 | -80.28221 | 19360 ft | 350 kts | 331° |
| 2026-05-05 01:48 | 34.53467 | -80.29735 | 19264 ft | 332 kts | 331° |
| 2026-05-05 01:48 | 34.55956 | -80.31218 | 19166 ft | 335 kts | 331° |
| 2026-05-05 01:48 | 34.58557 | -80.32791 | 19020 ft | 353 kts | 330° |
| 2026-05-05 01:48 | 34.61095 | -80.34581 | 18830 ft | 347 kts | 324° |
| 2026-05-05 01:49 | 34.63417 | -80.36599 | 18195 ft | 345 kts | 320° |
| 2026-05-05 01:49 | 34.65698 | -80.38805 | 17381 ft | 345 kts | 319° |
| 2026-05-05 01:49 | 34.67845 | -80.40939 | 16808 ft | 330 kts | 319° |
| 2026-05-05 01:49 | 34.69956 | -80.43023 | 16250 ft | 326 kts | 319° |
| 2026-05-05 01:50 | 34.72071 | -80.45092 | 15840 ft | 322 kts | 320° |
| 2026-05-05 01:50 | 34.74131 | -80.47120 | 15221 ft | 323 kts | 320° |
| 2026-05-05 01:50 | 34.76233 | -80.49196 | 14668 ft | 320 kts | 320° |
| 2026-05-05 01:50 | 34.78298 | -80.51232 | 14123 ft | 318 kts | 320° |
| 2026-05-05 01:51 | 34.80331 | -80.53236 | 13614 ft | 315 kts | 320° |
| 2026-05-05 01:51 | 34.82354 | -80.55230 | 13143 ft | 311 kts | 320° |
| 2026-05-05 01:51 | 34.84345 | -80.57193 | 12966 ft | 299 kts | 320° |
| 2026-05-05 01:51 | 34.86240 | -80.59090 | 12747 ft | 296 kts | 319° |
| 2026-05-05 01:52 | 34.88117 | -80.61013 | 12438 ft | 294 kts | 318° |
| 2026-05-05 01:52 | 34.89973 | -80.62922 | 12138 ft | 291 kts | 318° |
| 2026-05-05 01:52 | 34.91828 | -80.64825 | 11798 ft | 290 kts | 318° |
| 2026-05-05 01:52 | 34.93648 | -80.66687 | 11509 ft | 290 kts | 318° |
| 2026-05-05 01:53 | 34.95482 | -80.68562 | 11209 ft | 289 kts | 317° |
| 2026-05-05 01:53 | 34.97317 | -80.70440 | 10994 ft | 286 kts | 318° |
| 2026-05-05 01:53 | 34.99127 | -80.72293 | 10904 ft | 290 kts | 318° |
| 2026-05-05 01:53 | 35.00945 | -80.74155 | 10598 ft | 288 kts | 317° |
| 2026-05-05 01:54 | 35.02748 | -80.76023 | 10297 ft | 284 kts | 317° |
| 2026-05-05 01:54 | 35.04493 | -80.77879 | 10023 ft | 281 kts | 316° |
| 2026-05-05 01:54 | 35.06192 | -80.79700 | 9997 ft | 272 kts | 316° |
| 2026-05-05 01:54 | 35.07955 | -80.81467 | 9997 ft | 275 kts | 323° |
| 2026-05-05 01:55 | 35.10048 | -80.82458 | 10000 ft | 278 kts | 349° |
| 2026-05-05 01:55 | 35.12196 | -80.82602 | 9994 ft | 268 kts | 356° |
| 2026-05-05 01:55 | 35.14333 | -80.82641 | 9997 ft | 255 kts | 355° |
| 2026-05-05 01:55 | 35.16412 | -80.82746 | 9997 ft | 247 kts | 353° |
| 2026-05-05 01:56 | 35.18406 | -80.82901 | 9998 ft | 247 kts | 352° |
| 2026-05-05 01:56 | 35.20419 | -80.83075 | 9917 ft | 244 kts | 352° |
| 2026-05-05 01:56 | 35.22426 | -80.83248 | 9543 ft | 245 kts | 352° |
| 2026-05-05 01:56 | 35.24438 | -80.83419 | 9159 ft | 245 kts | 352° |
| 2026-05-05 01:57 | 35.26458 | -80.83589 | 8774 ft | 246 kts | 352° |
| 2026-05-05 01:57 | 35.28474 | -80.83758 | 8420 ft | 245 kts | 352° |
| 2026-05-05 01:57 | 35.30478 | -80.83927 | 8046 ft | 245 kts | 353° |
| 2026-05-05 01:57 | 35.32513 | -80.84103 | 7512 ft | 245 kts | 352° |
| 2026-05-05 01:58 | 35.34506 | -80.84312 | 7038 ft | 243 kts | 351° |
| 2026-05-05 01:58 | 35.36511 | -80.84541 | 6551 ft | 241 kts | 351° |
| 2026-05-05 01:58 | 35.38496 | -80.84763 | 6054 ft | 240 kts | 352° |
| 2026-05-05 01:58 | 35.40492 | -80.84979 | 5522 ft | 241 kts | 352° |
| 2026-05-05 01:59 | 35.42474 | -80.85205 | 5005 ft | 241 kts | 347° |
| 2026-05-05 01:59 | 35.44255 | -80.86101 | 4452 ft | 233 kts | 313° |
| 2026-05-05 01:59 | 35.45204 | -80.88002 | 3959 ft | 219 kts | 275° |
| 2026-05-05 01:59 | 35.45239 | -80.90164 | 3606 ft | 209 kts | 262° |
| 2026-05-05 02:00 | 35.44879 | -80.92202 | 3183 ft | 206 kts | 236° |
| 2026-05-05 02:00 | 35.43617 | -80.93494 | 2983 ft | 199 kts | 198° |
| 2026-05-05 02:00 | 35.41975 | -80.93911 | 2996 ft | 203 kts | 191° |
| 2026-05-05 02:00 | 35.40319 | -80.94273 | 2990 ft | 202 kts | 194° |
| 2026-05-05 02:01 | 35.38691 | -80.94742 | 2992 ft | 204 kts | 194° |
| 2026-05-05 02:01 | 35.37014 | -80.94915 | 2995 ft | 203 kts | 180° |
| 2026-05-05 02:01 | 35.35394 | -80.94721 | 3001 ft | 186 kts | 178° |
| 2026-05-05 02:01 | 35.33959 | -80.94581 | 2954 ft | 173 kts | 181° |
| 2026-05-05 02:02 | 35.32554 | -80.94488 | 2683 ft | 173 kts | 180° |
| 2026-05-05 02:02 | 35.31153 | -80.94356 | 2421 ft | 173 kts | 180° |
| 2026-05-05 02:02 | 35.29724 | -80.94237 | 2148 ft | 173 kts | 180° |
| 2026-05-05 02:02 | 35.28367 | -80.94120 | 1889 ft | 161 kts | 180° |
| 2026-05-05 02:03 | 35.27134 | -80.94010 | 1675 ft | 147 kts | 181° |
| 2026-05-05 02:03 | 35.25955 | -80.93916 | 1423 ft | 143 kts | 179° |
| 2026-05-05 02:03 | 35.24827 | -80.93813 | 1223 ft | 145 kts | 179° |
| 2026-05-05 02:03 | 35.23698 | -80.93722 | 1021 ft | 147 kts | 177° |
| 2026-05-05 02:04 | 35.22551 | -80.93625 | 787 ft | 151 kts | 176° |
| 2026-05-05 02:04 | 35.21463 | -80.93529 | 731 ft | 116 kts | 177° |
| 2026-05-05 02:04 | 35.20838 | -80.93478 | 719 ft | 44 kts | 176° |
| 2026-05-05 02:04 | 35.20614 | -80.93475 | 715 ft | 23 kts | 191° |
| 2026-05-05 02:05 | 35.20513 | -80.93524 | 716 ft | 7 kts | 228° |
| 2026-05-05 02:05 | 35.20527 | -80.93576 | 716 ft | 5 kts | 335° |
| 2026-05-05 02:05 | 35.20569 | -80.93586 | 717 ft | 6 kts | 353° |
| 2026-05-05 02:05 | 35.20597 | -80.93590 | 717 ft | 1 kts | 355° |
| 2026-05-05 02:06 | 35.20622 | -80.93592 | 717 ft | 7 kts | 355° |
| 2026-05-05 02:06 | 35.20700 | -80.93599 | 718 ft | 10 kts | 356° |
| 2026-05-05 02:06 | 35.20782 | -80.93606 | 718 ft | 9 kts | 356° |
| 2026-05-05 02:06 | 35.20858 | -80.93611 | 719 ft | 9 kts | 355° |
| 2026-05-05 02:07 | 35.20931 | -80.93617 | 721 ft | 10 kts | 356° |
| 2026-05-05 02:07 | 35.21027 | -80.93626 | 723 ft | 11 kts | 356° |
| 2026-05-05 02:07 | 35.21111 | -80.93632 | 724 ft | 9 kts | 356° |
| 2026-05-05 02:07 | 35.21186 | -80.93639 | 726 ft | 8 kts | 355° |
| 2026-05-05 02:08 | 35.21246 | -80.93645 | 727 ft | 6 kts | 355° |
| 2026-05-05 02:08 | 35.21291 | -80.93649 | 728 ft | 6 kts | 355° |
| 2026-05-05 02:08 | 35.21388 | -80.93662 | 730 ft | 12 kts | 342° |
| 2026-05-05 02:08 | 35.21472 | -80.93737 | 729 ft | 13 kts | 319° |
| 2026-05-05 02:09 | 35.21555 | -80.93828 | 727 ft | 14 kts | 318° |
| 2026-05-05 02:09 | 35.21645 | -80.93926 | 726 ft | 14 kts | 318° |
| 2026-05-05 02:09 | 35.21730 | -80.94019 | 726 ft | 13 kts | 318° |
| 2026-05-05 02:09 | 35.21778 | -80.94076 | 726 ft | 0 kts | 292° |
| 2026-05-05 02:10 | 35.21785 | -80.94111 | 726 ft | 5 kts | 287° |
| 2026-05-05 02:10 | 35.21794 | -80.94147 | 725 ft | 1 kts | 287° |
| 2026-05-05 02:10 | 35.21795 | -80.94150 | 725 ft | 0 kts | 287° |